Time;durP1;ratioP1;P1;durP2;ratioP2;P2;SDS_P1;SDS_P2;PMS_P1;PMS_P2;Temp;Humidity;BMP_temperature;BMP_pressure;BME280_temperature;BME280_humidity;BME280_pressure;Samples;Min_cycle;Max_cycle;Signal;HPM_P1;HPM_P2
2023/07/05 00:00:57;;;;;;;11.33;9.13;;;;;;;23.87;71.35;96954.41;5030206;28;20711;-82
2023/07/05 00:03:24;;;;;;;12.43;9.53;;;;;;;23.74;70.87;96938.94;5048859;28;20281;-78
2023/07/05 00:05:53;;;;;;;12.57;9.40;;;;;;;22.86;74.24;96949.47;5031477;28;20205;-85
2023/07/05 00:08:22;;;;;;;11.20;9.27;;;;;;;22.45;76.24;96945.47;5048940;28;20286;-86
2023/07/05 00:10:50;;;;;;;11.33;10.00;;;;;;;22.42;76.82;96945.75;5050105;28;20206;-79
2023/07/05 00:13:18;;;;;;;11.73;9.67;;;;;;;22.81;75.40;96950.91;5030531;28;20292;-78
2023/07/05 00:15:48;;;;;;;14.10;9.87;;;;;;;23.00;74.37;96942.88;5048864;28;20233;-77
2023/07/05 00:18:15;;;;;;;10.57;9.47;;;;;;;23.02;74.60;96946.19;5030378;28;20203;-83
2023/07/05 00:20:43;;;;;;;15.77;9.10;;;;;;;23.34;73.43;96951.84;5013526;28;20211;-83
2023/07/05 00:23:13;;;;;;;24.40;9.43;;;;;;;23.58;72.02;96948.56;5048436;28;20269;-80
2023/07/05 00:25:44;;;;;;;11.90;8.60;;;;;;;23.46;71.86;96940.03;5029664;28;20579;-79
2023/07/05 00:28:11;;;;;;;17.63;11.20;;;;;;;23.66;71.93;96946.81;5030627;28;20203;-80
2023/07/05 00:30:43;;;;;;;34.10;19.80;;;;;;;23.63;71.86;96941.84;5047722;28;20201;-80
2023/07/05 00:33:10;;;;;;;32.97;19.37;;;;;;;23.53;72.54;96941.09;5030140;28;20692;-82
2023/07/05 00:35:48;;;;;;;18.77;13.50;;;;;;;23.60;71.87;96934.22;5013299;28;20284;-82
2023/07/05 00:38:17;;;;;;;20.60;14.00;;;;;;;23.56;71.75;96921.44;5013580;28;20204;-81
2023/07/05 00:40:46;;;;;;;16.53;11.97;;;;;;;23.68;72.00;96936.91;5048093;28;20244;-81
2023/07/05 00:43:15;;;;;;;12.77;10.40;;;;;;;23.68;71.40;96928.19;5013065;28;20202;-79
2023/07/05 00:45:54;;;;;;;11.40;9.83;;;;;;;23.69;71.90;96941.25;5030016;28;20199;-80
2023/07/05 00:48:30;;;;;;;12.33;9.97;;;;;;;23.46;72.50;96924.19;5013642;28;20223;-79
2023/07/05 00:51:03;;;;;;;14.13;9.70;;;;;;;23.54;72.52;96933.97;4996882;28;20256;-80
2023/07/05 00:53:33;;;;;;;16.80;10.17;;;;;;;23.72;71.73;96935.63;5014013;28;20257;-80
2023/07/05 00:56:18;;;;;;;12.37;10.07;;;;;;;23.72;72.11;96919.75;5012502;28;20234;-80
2023/07/05 00:58:47;;;;;;;13.40;10.43;;;;;;;23.65;71.85;96931.13;5030136;28;20229;-79
2023/07/05 01:01:16;;;;;;;12.37;10.50;;;;;;;23.75;71.67;96937.97;5029192;28;20254;-80
2023/07/05 01:03:50;;;;;;;14.00;10.43;;;;;;;23.72;72.30;96935.63;5029355;28;20239;-80
2023/07/05 01:06:22;;;;;;;11.53;10.33;;;;;;;23.65;72.10;96931.94;5047457;28;20222;-81
2023/07/05 01:08:52;;;;;;;16.13;12.53;;;;;;;23.33;72.58;96927.22;5013145;28;20272;-79
2023/07/05 01:11:47;;;;;;;33.53;21.83;;;;;;;23.43;72.75;96930.59;5029846;28;20202;-79
2023/07/05 01:14:33;;;;;;;21.07;14.97;;;;;;;23.01;73.71;96912.81;5029041;28;20209;-80
2023/07/05 01:17:22;;;;;;;25.90;18.33;;;;;;;22.81;74.67;96922.69;5047033;28;20711;-79
2023/07/05 01:20:09;;;;;;;19.47;12.57;;;;;;;22.70;75.02;96919.41;5029822;28;20206;-79
2023/07/05 01:22:48;;;;;;;15.63;10.00;;;;;;;22.69;75.03;96910.66;5029516;28;20251;-80
2023/07/05 01:25:27;;;;;;;12.40;10.27;;;;;;;22.77;75.25;96915.22;5046891;28;20213;-82
2023/07/05 01:27:58;;;;;;;13.43;10.20;;;;;;;22.73;75.34;96909.38;5047066;28;20205;-80
2023/07/05 01:30:37;;;;;;;17.90;11.03;;;;;;;22.87;74.22;96910.69;5046509;28;20212;-82
2023/07/05 01:33:19;;;;;;;11.80;9.60;;;;;;;22.90;74.19;96883.97;5012927;28;20208;-80
2023/07/05 01:35:54;;;;;;;11.43;10.23;;;;;;;22.87;74.15;96895.69;5044461;28;20610;-80
2023/07/05 01:38:24;;;;;;;15.03;10.50;;;;;;;22.99;73.56;96893.66;5028786;28;20205;-83
2023/07/05 01:40:56;;;;;;;12.83;10.33;;;;;;;22.97;73.38;96891.16;5029638;28;20654;-79
2023/07/05 01:43:26;;;;;;;15.27;10.07;;;;;;;22.90;73.64;96887.44;5031916;28;20207;-80
2023/07/05 01:46:09;;;;;;;13.43;10.60;;;;;;;22.85;73.80;96889.72;5067221;28;20201;-80
2023/07/05 01:48:54;;;;;;;11.87;9.60;;;;;;;22.56;75.56;96892.50;5032393;28;20203;-78
2023/07/05 01:51:33;;;;;;;12.67;9.77;;;;;;;22.63;74.92;96890.94;5066613;28;20196;-84
2023/07/05 01:54:43;;;;;;;14.00;9.47;;;;;;;22.76;74.52;96893.25;5032687;28;20546;-85
2023/07/05 01:57:19;;;;;;;10.17;8.73;;;;;;;22.73;74.85;96890.88;5048166;28;20197;-83
2023/07/05 01:59:55;;;;;;;12.40;9.40;;;;;;;22.66;73.64;96871.34;5032403;28;20679;-87
2023/07/05 02:02:37;;;;;;;10.63;8.57;;;;;;;22.55;74.23;96880.28;5032446;28;20254;-82
2023/07/05 02:05:08;;;;;;;10.33;8.80;;;;;;;22.60;74.05;96869.31;5049378;28;20722;-78
2023/07/05 02:07:36;;;;;;;14.53;9.50;;;;;;;22.62;74.33;96884.03;5049249;28;20199;-78
2023/07/05 02:10:04;;;;;;;11.47;9.47;;;;;;;22.70;73.56;96893.00;5072028;28;20278;-84
2023/07/05 02:12:32;;;;;;;12.03;9.97;;;;;;;22.73;74.00;96890.06;5059089;28;20236;-83
2023/07/05 02:15:01;;;;;;;9.93;8.77;;;;;;;22.58;74.52;96885.31;5057872;28;20197;-83
2023/07/05 02:17:31;;;;;;;11.37;9.80;;;;;;;22.65;73.87;96888.16;5026659;28;20220;-78
2023/07/05 02:19:59;;;;;;;13.90;9.43;;;;;;;22.42;74.41;96879.78;5017941;28;20193;-79
2023/07/05 02:22:26;;;;;;;13.40;10.90;;;;;;;22.31;75.36;96876.50;5032256;28;20204;-79
2023/07/05 02:24:55;;;;;;;13.97;9.80;;;;;;;22.22;75.27;96894.03;5050985;28;20210;-79
2023/07/05 02:27:22;;;;;;;16.13;9.93;;;;;;;22.22;75.37;96887.94;5049986;28;20295;-79
2023/07/05 02:29:51;;;;;;;12.67;9.37;;;;;;;22.31;75.09;96887.91;5032286;28;20274;-77
2023/07/05 02:32:59;;;;;;;12.27;9.93;;;;;;;22.34;75.18;96887.59;5031702;28;20199;-78
2023/07/05 02:36:20;;;;;;;13.20;9.80;;;;;;;22.13;75.81;96899.38;5033089;28;20234;-77
2023/07/05 02:39:41;;;;;;;11.63;9.30;;;;;;;21.99;75.85;96890.09;5030713;28;20338;-78
2023/07/05 02:43:01;;;;;;;14.67;10.93;;;;;;;21.73;77.28;96886.41;5049096;28;20204;-79
2023/07/05 02:46:25;;;;;;;13.40;10.47;;;;;;;21.74;77.39;96888.06;5031849;28;20194;-79
2023/07/05 02:49:46;;;;;;;12.43;9.37;;;;;;;21.97;76.63;96880.69;5016420;28;20203;-80
2023/07/05 02:53:09;;;;;;;17.90;11.17;;;;;;;22.11;76.24;96891.59;5017759;28;20194;-79
2023/07/05 02:56:30;;;;;;;13.40;10.00;;;;;;;22.24;76.49;96905.28;5032004;28;20701;-76
2023/07/05 02:59:51;;;;;;;13.90;10.67;;;;;;;22.04;77.23;96898.41;5050958;28;20210;-77
2023/07/05 03:03:14;;;;;;;14.93;10.77;;;;;;;22.06;77.68;96893.00;5031366;28;20330;-82
2023/07/05 03:06:34;;;;;;;14.93;10.80;;;;;;;22.25;77.61;96898.22;5030296;28;20204;-79
2023/07/05 03:09:55;;;;;;;14.83;10.90;;;;;;;22.50;76.94;96900.97;5030376;28;20203;-78
2023/07/05 03:13:16;;;;;;;11.87;9.63;;;;;;;22.63;76.03;96900.69;5048654;28;20195;-76
2023/07/05 03:16:37;;;;;;;12.73;9.13;;;;;;;22.70;75.69;96900.91;5037682;28;20550;-79
2023/07/05 03:19:59;;;;;;;13.93;10.13;;;;;;;22.60;76.45;96893.06;5049445;28;20335;-79
2023/07/05 03:23:20;;;;;;;15.87;11.43;;;;;;;22.40;76.85;96886.19;5049711;28;20196;-78
2023/07/05 03:26:42;;;;;;;15.70;11.27;;;;;;;22.18;78.69;96882.13;5052133;28;20203;-79
2023/07/05 03:30:03;;;;;;;16.17;11.27;;;;;;;22.18;77.74;96882.13;5068809;28;20685;-79
2023/07/05 03:33:25;;;;;;;15.57;10.97;;;;;;;22.46;75.98;96888.25;5033655;28;20290;-79
2023/07/05 03:36:49;;;;;;;16.47;11.57;;;;;;;21.97;77.81;96872.78;5043432;28;20234;-81
2023/07/05 03:40:10;;;;;;;14.77;11.23;;;;;;;22.00;78.75;96883.03;5050374;28;20215;-79
2023/07/05 03:43:35;;;;;;;16.33;11.50;;;;;;;21.75;79.72;96885.28;5050271;28;20218;-79
2023/07/05 03:46:56;;;;;;;17.03;12.10;;;;;;;21.43;81.73;96878.69;5060680;28;20202;-77
2023/07/05 03:50:17;;;;;;;13.97;11.43;;;;;;;21.54;82.16;96883.78;5040900;28;20202;-77
2023/07/05 03:53:38;;;;;;;13.63;10.70;;;;;;;22.19;79.04;96889.06;5056873;28;20198;-78
2023/07/05 03:56:59;;;;;;;14.80;10.90;;;;;;;22.83;75.96;96875.00;5039666;28;20723;-79
2023/07/05 04:00:20;;;;;;;14.10;11.13;;;;;;;23.26;74.68;96890.94;5056421;28;21261;-78
2023/07/05 04:03:44;;;;;;;12.43;11.00;;;;;;;23.30;74.83;96893.13;5051709;28;20715;-80
2023/07/05 04:07:04;;;;;;;12.13;10.80;;;;;;;23.43;74.75;96893.59;5048215;28;20200;-77
2023/07/05 04:10:26;;;;;;;12.47;10.47;;;;;;;22.78;75.61;96888.63;5043907;28;20279;-79
2023/07/05 04:13:47;;;;;;;16.13;12.30;;;;;;;22.76;76.46;96892.41;5057636;28;20223;-78
2023/07/05 04:17:08;;;;;;;14.40;12.30;;;;;;;22.71;77.21;96879.63;5038892;28;20230;-82
2023/07/05 04:20:31;;;;;;;17.53;11.30;;;;;;;23.30;75.32;96898.41;5057143;28;20221;-80
2023/07/05 04:23:52;;;;;;;14.27;10.93;;;;;;;23.73;72.71;96899.44;5028624;28;20213;-80
2023/07/05 04:27:13;;;;;;;17.80;11.60;;;;;;;24.17;71.14;96901.91;5015187;28;20710;-79
2023/07/05 04:30:35;;;;;;;15.20;10.90;;;;;;;24.67;69.28;96904.59;5029707;28;20259;-77
2023/07/05 04:33:56;;;;;;;13.30;10.43;;;;;;;24.92;68.62;96908.19;5046381;28;20204;-78
2023/07/05 04:37:24;;;;;;;13.63;9.97;;;;;;;25.15;67.30;96897.81;5029044;28;20241;-77
2023/07/05 04:40:45;;;;;;;14.47;10.23;;;;;;;24.92;67.52;96903.72;5028814;28;20205;-76
2023/07/05 04:44:07;;;;;;;17.93;11.53;;;;;;;24.42;69.52;96904.69;5031768;28;20201;-75
2023/07/05 04:47:28;;;;;;;17.87;11.63;;;;;;;24.60;68.98;96894.81;5046669;28;20220;-75
2023/07/05 04:50:50;;;;;;;12.07;10.17;;;;;;;25.33;66.76;96888.72;5031524;28;20196;-75
2023/07/05 04:54:13;;;;;;;16.07;11.60;;;;;;;25.48;65.74;96891.56;5014372;28;20648;-75
2023/07/05 04:57:33;;;;;;;13.23;10.43;;;;;;;25.90;65.07;96894.03;5046214;28;20553;-76
2023/07/05 05:00:55;;;;;;;11.80;10.57;;;;;;;26.07;64.52;96887.72;5029060;28;20242;-76
2023/07/05 05:04:16;;;;;;;13.87;11.23;;;;;;;26.05;63.88;96887.84;5048394;28;20698;-79
2023/07/05 05:07:36;;;;;;;15.77;10.63;;;;;;;26.11;63.68;96881.09;5047391;28;20198;-81
2023/07/05 05:10:57;;;;;;;17.13;10.73;;;;;;;26.17;63.27;96873.25;5046981;28;20213;-79
2023/07/05 05:14:18;;;;;;;13.87;10.73;;;;;;;26.84;60.92;96882.47;5012171;28;20201;-75
2023/07/05 05:17:40;;;;;;;11.77;10.10;;;;;;;26.82;61.18;96888.97;5045308;28;20230;-79
2023/07/05 05:21:00;;;;;;;11.17;9.80;;;;;;;26.86;60.25;96877.81;5013950;28;20605;-85
2023/07/05 05:24:21;;;;;;;13.97;9.87;;;;;;;26.68;61.51;96885.19;5046066;28;20205;-87
2023/07/05 05:27:42;;;;;;;15.53;10.50;;;;;;;26.52;61.87;96879.97;5027872;28;20542;-82
2023/07/05 05:31:04;;;;;;;15.33;10.10;;;;;;;26.53;63.53;96878.94;5047245;28;20562;-83
2023/07/05 05:34:28;;;;;;;14.63;10.33;;;;;;;26.84;61.87;96874.50;5029758;28;20205;-82
2023/07/05 05:37:48;;;;;;;13.17;10.43;;;;;;;26.83;61.37;96888.78;5014593;28;20771;-81
2023/07/05 05:41:10;;;;;;;13.00;10.47;;;;;;;27.11;61.47;96884.66;5046622;28;20226;-81
2023/07/05 05:44:31;;;;;;;13.20;11.77;;;;;;;27.33;60.24;96881.16;5045169;28;20678;-82
2023/07/05 05:47:52;;;;;;;12.97;11.57;;;;;;;27.37;60.20;96882.50;5046835;28;20217;-77
2023/07/05 05:51:14;;;;;;;12.03;10.30;;;;;;;27.84;59.32;96881.44;5045283;28;20198;-78
2023/07/05 05:54:36;;;;;;;13.93;11.30;;;;;;;27.84;58.61;96881.44;5028310;28;20214;-86
2023/07/05 05:57:57;;;;;;;13.77;10.93;;;;;;;27.86;59.03;96888.22;5045509;28;20650;-79
2023/07/05 06:01:21;;;;;;;14.57;10.70;;;;;;;27.90;59.55;96884.19;5046032;28;20198;-86
2023/07/05 06:04:42;;;;;;;13.57;10.93;;;;;;;28.00;59.35;96894.63;5050588;28;20206;-86
2023/07/05 06:08:04;;;;;;;13.07;11.60;;;;;;;27.75;60.27;96893.16;5016953;28;20688;-87
2023/07/05 06:11:33;;;;;;;19.43;11.83;;;;;;;27.62;61.10;96888.44;5031734;28;20253;-79
2023/07/05 06:14:54;;;;;;;14.57;11.20;;;;;;;27.90;59.89;96886.03;5018578;28;20206;-84
2023/07/05 06:18:15;;;;;;;12.47;11.13;;;;;;;28.17;59.84;96882.81;5046022;28;20210;-80
2023/07/05 06:21:37;;;;;;;12.63;10.43;;;;;;;28.16;58.72;96884.63;5028703;28;20206;-80
2023/07/05 06:24:58;;;;;;;14.23;9.90;;;;;;;28.36;57.63;96884.09;5027712;28;20201;-80
2023/07/05 06:28:23;;;;;;;9.53;8.33;;;;;;;28.08;56.03;96881.22;5044726;28;20198;-77
2023/07/05 06:31:44;;;;;;;15.03;8.60;;;;;;;28.49;55.77;96871.75;5046039;28;20246;-77
2023/07/05 06:35:04;;;;;;;9.87;7.60;;;;;;;28.76;53.81;96867.63;5045696;28;20246;-76
2023/07/05 06:38:27;;;;;;;11.13;8.90;;;;;;;28.99;53.13;96878.97;5013257;28;20267;-76
2023/07/05 06:41:48;;;;;;;11.30;8.53;;;;;;;28.77;53.31;96871.94;5025658;28;20195;-76
2023/07/05 06:45:12;;;;;;;10.43;8.33;;;;;;;28.86;53.53;96868.97;5028515;28;20199;-82
2023/07/05 06:48:33;;;;;;;13.00;8.20;;;;;;;28.81;53.46;96868.69;5028451;28;20194;-75
2023/07/05 06:51:59;;;;;;;10.27;7.77;;;;;;;28.91;53.42;96855.88;5045427;28;20209;-77
2023/07/05 06:55:22;;;;;;;9.77;7.43;;;;;;;28.94;52.80;96868.84;5047127;28;20740;-79
2023/07/05 06:58:42;;;;;;;10.40;8.43;;;;;;;29.15;52.65;96861.91;5030796;28;20190;-78
2023/07/05 07:02:06;;;;;;;11.90;7.93;;;;;;;29.32;51.94;96861.50;5046573;28;20230;-81
2023/07/05 07:05:28;;;;;;;9.43;7.87;;;;;;;28.73;53.23;96867.97;5047356;28;20284;-79
2023/07/05 07:08:49;;;;;;;10.33;8.10;;;;;;;28.82;52.88;96862.38;5032602;28;20234;-80
2023/07/05 07:11:32;;;;;;;13.00;8.10;;;;;;;28.90;52.78;96861.41;5029548;28;20201;-76
2023/07/05 07:13:59;;;;;;;12.03;8.43;;;;;;;28.77;52.88;96863.94;5030723;28;20217;-82
2023/07/05 07:16:27;;;;;;;10.83;8.30;;;;;;;28.77;53.43;96863.94;5047986;28;20218;-80
2023/07/05 07:18:55;;;;;;;13.07;9.03;;;;;;;28.91;52.72;96828.41;5030983;28;20716;-77
2023/07/05 07:21:26;;;;;;;11.33;8.90;;;;;;;29.21;52.94;96855.81;5047885;28;20213;-79
2023/07/05 07:23:53;;;;;;;13.13;9.60;;;;;;;29.26;52.45;96842.75;5030789;28;20210;-79
2023/07/05 07:26:25;;;;;;;21.57;14.93;;;;;;;28.96;53.59;96842.81;5030819;28;20277;-73
2023/07/05 07:28:54;;;;;;;10.80;8.90;;;;;;;29.06;53.38;96857.72;5014408;28;20238;-78
2023/07/05 07:31:23;;;;;;;12.53;9.67;;;;;;;29.15;53.49;96857.41;5049367;28;20225;-80
2023/07/05 07:33:52;;;;;;;9.97;8.57;;;;;;;29.37;52.95;96859.06;5030308;28;20221;-77
2023/07/05 07:36:26;;;;;;;10.27;8.30;;;;;;;29.34;53.11;96842.63;5048477;28;20229;-78
2023/07/05 07:38:56;;;;;;;12.00;9.93;;;;;;;29.37;52.57;96861.72;5030761;28;20216;-79
2023/07/05 07:41:36;;;;;;;9.47;8.47;;;;;;;29.85;51.61;96859.28;5030035;28;20241;-76
2023/07/05 07:44:07;;;;;;;11.17;8.80;;;;;;;30.12;50.83;96859.28;5048647;28;20209;-84
2023/07/05 07:46:40;;;;;;;11.43;9.57;;;;;;;30.00;51.02;96852.84;5029782;28;20210;-83
2023/07/05 07:49:09;;;;;;;12.23;9.00;;;;;;;30.22;50.76;96857.09;5047571;28;20741;-80
2023/07/05 07:51:39;;;;;;;13.43;9.60;;;;;;;30.40;49.71;96846.72;5029969;28;20344;-84
2023/07/05 07:54:20;;;;;;;12.00;8.67;;;;;;;30.36;49.90;96821.41;5048137;28;20197;-83
2023/07/05 07:56:49;;;;;;;11.97;9.70;;;;;;;30.91;48.70;96849.03;5036108;28;20220;-80
2023/07/05 07:59:56;;;;;;;11.07;9.07;;;;;;;31.02;48.31;96851.09;5032794;28;20194;-79
2023/07/05 08:03:19;;;;;;;9.27;8.30;;;;;;;30.94;48.74;96853.97;5061485;28;20611;-85
2023/07/05 08:06:41;;;;;;;10.47;9.20;;;;;;;30.96;49.71;96860.78;5066869;28;20651;-79
2023/07/05 08:10:01;;;;;;;9.77;8.73;;;;;;;30.91;49.33;96862.41;5065366;28;20291;-78
2023/07/05 08:13:22;;;;;;;9.67;8.67;;;;;;;30.88;49.35;96868.16;5066765;28;20198;-77
2023/07/05 08:16:43;;;;;;;10.57;8.73;;;;;;;31.17;48.10;96859.78;5064717;28;20298;-76
2023/07/05 08:20:04;;;;;;;12.10;9.20;;;;;;;31.03;48.45;96852.78;5066419;28;20197;-76
2023/07/05 08:23:26;;;;;;;11.57;9.53;;;;;;;30.77;48.96;96861.47;5066712;28;20218;-81
2023/07/05 08:26:49;;;;;;;12.33;9.67;;;;;;;30.72;49.34;96863.13;5066658;28;20198;-76
2023/07/05 08:30:09;;;;;;;9.97;8.63;;;;;;;30.93;48.45;96860.34;5065676;28;20677;-84
2023/07/05 08:33:32;;;;;;;12.23;9.68;;;;;;;31.27;49.44;96862.91;5065791;28;20205;-81
2023/07/05 08:36:59;;;;;;;12.60;9.43;;;;;;;31.12;48.65;96822.09;5065815;28;20233;-76
2023/07/05 08:40:19;;;;;;;13.57;8.53;;;;;;;31.50;47.64;96843.81;5050198;28;20194;-76
2023/07/05 08:43:46;;;;;;;9.93;8.80;;;;;;;31.60;47.35;96850.41;5064239;28;20198;-80
2023/07/05 08:47:07;;;;;;;13.98;10.27;;;;;;;31.68;48.00;96849.38;5063895;28;20200;-79
2023/07/05 08:50:14;;;;;;;17.15;10.75;;;;;;;31.55;49.29;96852.88;5066277;28;20844;-78
2023/07/05 08:53:39;;;;;;;10.25;8.35;;;;;;;31.54;48.87;96856.59;5066212;28;20197;-81
2023/07/05 08:57:04;;;;;;;10.48;9.32;;;;;;;30.93;49.12;96845.13;5064037;28;20299;-76
2023/07/05 09:00:31;;;;;;;12.32;9.50;;;;;;;30.28;51.42;96789.50;5064568;28;20216;-76
2023/07/05 09:03:53;;;;;;;13.60;9.57;;;;;;;30.94;50.02;96820.03;5047874;28;20221;-78
2023/07/05 09:06:54;;;;;;;14.90;8.67;;;;;;;30.99;50.25;96838.97;5013412;28;20301;-76
2023/07/05 09:09:46;;;;;;;11.07;8.97;;;;;;;30.76;50.11;96837.63;5029344;28;20198;-83
2023/07/05 09:13:16;;;;;;;10.57;9.27;;;;;;;30.99;49.91;96830.13;5044974;28;20209;-80
2023/07/05 09:16:26;;;;;;;10.73;9.00;;;;;;;31.36;49.45;96829.56;5012492;28;20256;-76
2023/07/05 09:19:14;;;;;;;12.43;9.68;;;;;;;31.06;49.71;96828.25;5020484;28;20582;-75
2023/07/05 09:22:36;;;;;;;12.47;9.70;;;;;;;31.32;48.73;96823.78;5024472;28;20713;-81
2023/07/05 09:25:59;;;;;;;10.83;9.37;;;;;;;31.42;48.16;96817.25;5023957;28;20611;-77
2023/07/05 09:29:03;;;;;;;10.50;9.40;;;;;;;31.53;47.78;96822.78;5025150;28;20609;-77
2023/07/05 09:32:27;;;;;;;10.68;8.93;;;;;;;31.34;48.26;96815.56;5017091;28;20232;-77
2023/07/05 09:35:56;;;;;;;11.77;8.30;;;;;;;31.06;49.13;96809.53;5044798;28;20204;-76
2023/07/05 09:39:17;;;;;;;10.80;9.15;;;;;;;31.08;49.42;96816.34;5044263;28;20198;-77
2023/07/05 09:42:43;;;;;;;11.83;9.27;;;;;;;31.05;49.64;96811.41;5028833;28;20284;-75
2023/07/05 09:46:04;;;;;;;9.68;8.70;;;;;;;31.38;48.32;96808.78;5011926;28;20676;-79
2023/07/05 09:49:27;;;;;;;10.05;8.23;;;;;;;32.19;45.84;96810.16;5045083;28;20213;-79
2023/07/05 09:52:49;;;;;;;11.18;8.75;;;;;;;32.16;47.43;96807.91;5044660;28;20522;-76
2023/07/05 09:56:27;;;;;;;8.77;7.95;;;;;;;31.41;48.49;96767.41;5044335;28;20264;-76
2023/07/05 09:59:55;;;;;;;11.80;8.30;;;;;;;31.19;49.92;96785.47;5044989;28;20198;-76
2023/07/05 10:03:20;;;;;;;9.80;8.80;;;;;;;31.00;49.89;96802.31;5045457;28;20299;-76
2023/07/05 10:06:44;;;;;;;11.03;8.50;;;;;;;31.28;49.22;96801.13;5045169;28;20596;-79
2023/07/05 10:10:23;;;;;;;13.90;9.13;;;;;;;31.32;49.44;96804.25;5026779;28;20213;-77
2023/07/05 10:13:43;;;;;;;10.93;9.37;;;;;;;31.08;50.26;96802.13;5044125;28;20198;-79
2023/07/05 10:16:53;;;;;;;10.77;8.70;;;;;;;31.15;49.03;96805.66;5012848;28;21039;-76
2023/07/05 10:20:17;;;;;;;12.37;8.30;;;;;;;31.22;50.15;96801.94;5029624;28;20305;-80
2023/07/05 10:23:43;;;;;;;10.27;7.73;;;;;;;30.89;50.51;96794.91;5026881;28;20194;-79
2023/07/05 10:27:04;;;;;;;9.57;7.90;;;;;;;30.72;51.07;96798.94;5044042;28;20217;-81
2023/07/05 10:30:29;;;;;;;10.90;7.43;;;;;;;30.72;52.20;96804.28;4998012;28;20216;-77
2023/07/05 10:33:52;;;;;;;22.60;8.57;;;;;;;30.49;52.86;96805.44;5026967;28;20194;-81
2023/07/05 10:37:13;;;;;;;19.77;13.00;;;;;;;30.73;52.66;96803.28;5028544;28;20234;-78
2023/07/05 10:40:36;;;;;;;9.27;8.27;;;;;;;30.83;51.16;96806.38;5028441;28;20219;-80
2023/07/05 10:44:00;;;;;;;12.03;8.00;;;;;;;30.80;51.68;96793.41;5027943;28;20199;-79
2023/07/05 10:47:23;;;;;;;11.50;8.30;;;;;;;30.98;51.78;96796.34;4996634;28;20209;-80
2023/07/05 10:50:43;;;;;;;15.13;8.50;;;;;;;31.01;51.99;96774.56;5016440;28;20566;-78
2023/07/05 10:54:04;;;;;;;14.73;8.93;;;;;;;31.18;53.13;96786.53;5014348;28;20646;-80
2023/07/05 10:57:33;;;;;;;12.20;8.87;;;;;;;31.17;54.46;96787.53;5020957;28;20686;-77
2023/07/05 11:00:40;;;;;;;10.10;8.87;;;;;;;30.64;54.00;96789.25;5027815;28;20809;-77
2023/07/05 11:04:02;;;;;;;11.37;7.80;;;;;;;30.62;48.54;96783.28;5028025;28;20195;-78
2023/07/05 11:07:23;;;;;;;10.30;7.53;;;;;;;30.24;50.49;96774.03;5028139;28;20202;-79
2023/07/05 11:10:45;;;;;;;10.63;6.87;;;;;;;30.33;49.09;96764.88;5027421;28;20217;-77
2023/07/05 11:14:15;;;;;;;7.70;6.90;;;;;;;30.72;48.26;96777.53;5026341;28;20249;-80
2023/07/05 11:17:40;;;;;;;9.33;7.13;;;;;;;30.75;51.07;96769.94;5028104;28;20236;-77
2023/07/05 11:20:40;;;;;;;13.03;7.93;;;;;;;30.56;52.73;96756.53;5026810;28;20351;-78
2023/07/05 11:23:44;;;;;;;13.73;8.57;;;;;;;30.55;54.19;96734.31;5027576;28;20216;-77
2023/07/05 11:26:28;;;;;;;5.63;5.10;;;;;;;30.21;48.45;96748.53;5004672;28;20229;-78
2023/07/05 11:29:25;;;;;;;5.40;4.63;;;;;;;29.72;47.19;96753.19;5010442;28;20203;-78
2023/07/05 11:31:57;;;;;;;6.20;5.17;;;;;;;29.67;48.67;96758.28;5027863;28;20692;-76
2023/07/05 11:34:29;;;;;;;7.83;5.40;;;;;;;29.83;47.30;96766.03;5027833;28;20282;-78
2023/07/05 11:37:13;;;;;;;6.30;5.30;;;;;;;29.87;46.07;96756.59;5027048;28;20250;-77
2023/07/05 11:40:25;;;;;;;6.67;5.53;;;;;;;29.76;46.84;96754.47;5027267;28;20201;-76
2023/07/05 11:44:02;;;;;;;7.40;5.90;;;;;;;29.81;47.55;96762.72;5026778;28;20260;-79
2023/07/05 11:47:24;;;;;;;9.50;5.53;;;;;;;29.94;48.77;96764.66;5011884;28;20205;-77
2023/07/05 11:50:47;;;;;;;6.13;5.53;;;;;;;29.74;46.80;96767.19;5026828;28;20219;-77
2023/07/05 11:54:09;;;;;;;6.33;5.70;;;;;;;29.83;45.75;96763.34;5011690;28;20195;-75
2023/07/05 11:57:30;;;;;;;8.00;6.40;;;;;;;30.21;46.10;96774.47;5026497;28;20296;-77
2023/07/05 12:00:35;;;;;;;13.23;5.47;;;;;;;30.10;46.26;96794.53;5026802;28;20202;-77
2023/07/05 12:03:40;;;;;;;6.30;5.60;;;;;;;30.24;45.54;96803.44;5009616;28;20715;-77
2023/07/05 12:07:03;;;;;;;7.37;5.70;;;;;;;30.39;44.95;96791.63;5011553;28;20253;-81
2023/07/05 12:10:23;;;;;;;6.20;5.53;;;;;;;30.06;46.62;96777.25;4993861;28;20244;-79
2023/07/05 12:13:46;;;;;;;7.23;5.03;;;;;;;29.73;46.67;96765.56;4992203;28;20201;-78
2023/07/05 12:17:08;;;;;;;7.07;6.07;;;;;;;29.36;48.13;96733.84;5027270;28;20791;-77
2023/07/05 12:20:32;;;;;;;8.13;5.53;;;;;;;29.17;48.89;96739.84;5041403;28;20778;-77
2023/07/05 12:23:54;;;;;;;7.73;5.40;;;;;;;29.24;48.68;96744.22;5028126;28;20254;-77
2023/07/05 12:27:16;;;;;;;7.27;5.30;;;;;;;29.01;48.43;96769.41;5030397;28;20274;-78
2023/07/05 12:30:37;;;;;;;5.70;4.77;;;;;;;28.84;48.55;96764.34;5046437;28;20921;-80
2023/07/05 12:34:04;;;;;;;5.40;4.90;;;;;;;28.64;47.86;96755.34;5031255;28;20194;-82
2023/07/05 12:37:25;;;;;;;6.07;4.70;;;;;;;28.82;46.35;96752.22;5027943;28;20321;-79
2023/07/05 12:40:42;;;;;;;5.77;4.70;;;;;;;28.74;47.03;96742.50;5038659;28;20213;-81
2023/07/05 12:44:05;;;;;;;7.27;4.47;;;;;;;28.70;47.37;96762.56;5045936;28;20193;-79
2023/07/05 12:47:31;;;;;;;5.20;4.13;;;;;;;28.87;46.27;96784.47;5028565;28;20213;-81
2023/07/05 12:50:33;;;;;;;7.37;4.50;;;;;;;29.19;47.16;96788.50;5028519;28;20606;-79
2023/07/05 12:53:41;;;;;;;5.60;4.70;;;;;;;29.11;47.35;96769.91;5045594;28;20264;-78
2023/07/05 12:57:02;;;;;;;5.30;4.63;;;;;;;29.26;47.93;96778.72;5013398;28;20308;-78
2023/07/05 13:00:23;;;;;;;7.03;5.13;;;;;;;29.11;48.96;96775.25;5013614;28;20709;-78
2023/07/05 13:03:44;;;;;;;5.87;4.67;;;;;;;29.14;48.38;96770.34;5046366;28;20229;-78
2023/07/05 13:07:06;;;;;;;5.77;4.90;;;;;;;29.25;48.14;96774.38;5065758;28;20227;-80
2023/07/05 13:10:30;;;;;;;5.63;5.03;;;;;;;29.11;48.33;96789.44;5045485;28;20213;-78
2023/07/05 13:14:00;;;;;;;5.87;5.00;;;;;;;28.87;49.90;96784.47;5065227;28;20263;-79
2023/07/05 13:16:40;;;;;;;8.23;5.10;;;;;;;28.67;50.09;96768.25;5065729;28;20220;-80
2023/07/05 13:20:05;;;;;;;7.27;5.03;;;;;;;28.87;50.05;96763.94;5063291;28;20209;-79
2023/07/05 13:23:32;;;;;;;5.57;4.93;;;;;;;28.77;48.97;96752.78;5027046;28;20233;-79
2023/07/05 13:27:08;;;;;;;5.73;5.17;;;;;;;28.76;49.21;96760.97;5029627;28;20737;-77
2023/07/05 13:30:35;;;;;;;7.20;5.07;;;;;;;28.89;49.36;96756.59;5013344;28;20703;-79
2023/07/05 13:33:56;;;;;;;6.00;5.20;;;;;;;29.39;48.65;96752.13;5044789;28;20201;-78
2023/07/05 13:37:19;;;;;;;8.37;5.57;;;;;;;29.84;47.77;96751.66;5026890;28;20234;-77
2023/07/05 13:40:44;;;;;;;9.97;5.77;;;;;;;30.08;48.19;96753.84;5045354;28;20206;-78
2023/07/05 13:44:06;;;;;;;11.50;7.17;;;;;;;30.29;50.63;96753.78;5027170;28;20205;-77
2023/07/05 13:47:28;;;;;;;10.70;9.13;;;;;;;30.64;53.77;96748.31;5060452;28;20216;-77
2023/07/05 13:50:49;;;;;;;13.20;8.80;;;;;;;31.00;52.07;96743.47;5054215;28;20219;-79
2023/07/05 13:54:11;;;;;;;11.53;7.80;;;;;;;31.06;49.99;96748.81;5046919;28;20197;-77
2023/07/05 13:57:36;;;;;;;6.57;5.70;;;;;;;30.94;45.95;96738.94;5064247;28;20257;-77
2023/07/05 14:00:58;;;;;;;9.03;5.40;;;;;;;30.88;45.76;96734.41;5065169;28;20193;-77
2023/07/05 14:04:19;;;;;;;6.53;5.70;;;;;;;30.96;45.73;96732.34;5049885;28;20718;-76
2023/07/05 14:07:40;;;;;;;6.80;5.10;;;;;;;31.25;44.68;96723.09;5067333;28;20216;-77
2023/07/05 14:11:05;;;;;;;8.43;5.40;;;;;;;30.86;44.97;96696.34;5066799;28;20208;-76
2023/07/05 14:14:26;;;;;;;6.87;5.37;;;;;;;30.90;44.59;96705.59;5049102;28;20207;-78
2023/07/05 14:17:59;;;;;;;9.40;5.80;;;;;;;30.81;47.58;96674.72;5052384;28;20233;-79
2023/07/05 14:21:21;;;;;;;7.40;6.07;;;;;;;30.80;47.78;96683.75;5067266;28;20287;-78
2023/07/05 14:24:42;;;;;;;7.60;6.90;;;;;;;30.68;51.41;96669.34;5048615;28;20280;-77
2023/07/05 14:28:04;;;;;;;15.97;9.00;;;;;;;30.47;53.44;96665.81;5067329;28;20271;-76